sensor_id;sensor_type;location;lat;lon;timestamp;pressure;altitude;pressure_sealevel;temperature;humidity
23899;BME280;20544;50.018;20.010;2023-06-22T00:02:21;98971.98;;;21.24;100.00
23899;BME280;20544;50.018;20.010;2023-06-22T00:05:38;98986.13;;;21.31;100.00
23899;BME280;20544;50.018;20.010;2023-06-22T00:08:54;98995.09;;;21.37;100.00
23899;BME280;20544;50.018;20.010;2023-06-22T00:12:11;98999.51;;;21.26;100.00
23899;BME280;20544;50.018;20.010;2023-06-22T00:15:28;99005.08;;;21.36;100.00
23899;BME280;20544;50.018;20.010;2023-06-22T00:18:45;99004.75;;;21.32;100.00
23899;BME280;20544;50.018;20.010;2023-06-22T00:22:02;99007.45;;;21.32;100.00
23899;BME280;20544;50.018;20.010;2023-06-22T00:25:19;99008.32;;;21.38;100.00
23899;BME280;20544;50.018;20.010;2023-06-22T00:28:35;99004.02;;;21.37;100.00
23899;BME280;20544;50.018;20.010;2023-06-22T00:31:52;99000.55;;;21.42;100.00
23899;BME280;20544;50.018;20.010;2023-06-22T00:35:09;98993.23;;;21.37;100.00
23899;BME280;20544;50.018;20.010;2023-06-22T00:38:26;98980.29;;;21.39;100.00
23899;BME280;20544;50.018;20.010;2023-06-22T00:41:43;98974.76;;;21.29;100.00
23899;BME280;20544;50.018;20.010;2023-06-22T00:44:59;98967.59;;;21.17;100.00
23899;BME280;20544;50.018;20.010;2023-06-22T00:48:16;98967.19;;;21.09;100.00
23899;BME280;20544;50.018;20.010;2023-06-22T00:51:34;98963.25;;;20.99;100.00
23899;BME280;20544;50.018;20.010;2023-06-22T00:54:55;98964.02;;;20.95;100.00
23899;BME280;20544;50.018;20.010;2023-06-22T00:58:13;98965.72;;;20.84;100.00
23899;BME280;20544;50.018;20.010;2023-06-22T01:01:31;98959.42;;;20.78;100.00
23899;BME280;20544;50.018;20.010;2023-06-22T01:04:49;98959.09;;;20.75;100.00
23899;BME280;20544;50.018;20.010;2023-06-22T01:08:16;98958.98;;;20.69;100.00
23899;BME280;20544;50.018;20.010;2023-06-22T01:11:37;98947.56;;;20.62;100.00
23899;BME280;20544;50.018;20.010;2023-06-22T01:15:00;98958.01;;;20.59;100.00
23899;BME280;20544;50.018;20.010;2023-06-22T01:18:21;98946.65;;;20.57;100.00
23899;BME280;20544;50.018;20.010;2023-06-22T01:21:40;98940.67;;;20.55;100.00
23899;BME280;20544;50.018;20.010;2023-06-22T01:25:04;98948.42;;;20.51;100.00
23899;BME280;20544;50.018;20.010;2023-06-22T01:28:35;98947.63;;;20.50;100.00
23899;BME280;20544;50.018;20.010;2023-06-22T01:31:59;98942.73;;;20.47;100.00
23899;BME280;20544;50.018;20.010;2023-06-22T01:35:17;98955.28;;;20.42;100.00
23899;BME280;20544;50.018;20.010;2023-06-22T01:38:36;98950.86;;;20.35;100.00
23899;BME280;20544;50.018;20.010;2023-06-22T01:41:54;98955.66;;;20.33;100.00
23899;BME280;20544;50.018;20.010;2023-06-22T01:45:12;98954.02;;;20.32;100.00
23899;BME280;20544;50.018;20.010;2023-06-22T01:48:30;98964.23;;;20.30;100.00
23899;BME280;20544;50.018;20.010;2023-06-22T01:51:47;98961.20;;;20.27;100.00
23899;BME280;20544;50.018;20.010;2023-06-22T01:55:04;98961.55;;;20.30;100.00
23899;BME280;20544;50.018;20.010;2023-06-22T01:58:25;98957.92;;;20.25;100.00
23899;BME280;20544;50.018;20.010;2023-06-22T02:01:47;98955.73;;;20.22;100.00
23899;BME280;20544;50.018;20.010;2023-06-22T02:05:08;98957.25;;;20.17;100.00
23899;BME280;20544;50.018;20.010;2023-06-22T02:08:29;98956.70;;;20.15;100.00
23899;BME280;20544;50.018;20.010;2023-06-22T02:11:51;98958.23;;;20.11;100.00
23899;BME280;20544;50.018;20.010;2023-06-22T02:15:11;98950.78;;;20.01;100.00
23899;BME280;20544;50.018;20.010;2023-06-22T02:18:30;98958.27;;;19.99;100.00
23899;BME280;20544;50.018;20.010;2023-06-22T02:21:47;98971.02;;;20.04;100.00
23899;BME280;20544;50.018;20.010;2023-06-22T02:25:04;98963.90;;;19.98;100.00
23899;BME280;20544;50.018;20.010;2023-06-22T02:28:21;98965.75;;;19.97;100.00
23899;BME280;20544;50.018;20.010;2023-06-22T02:31:38;98965.91;;;19.91;100.00
23899;BME280;20544;50.018;20.010;2023-06-22T02:34:55;98976.67;;;19.91;100.00
23899;BME280;20544;50.018;20.010;2023-06-22T02:38:13;98984.16;;;19.88;100.00
23899;BME280;20544;50.018;20.010;2023-06-22T02:41:31;98975.52;;;19.86;100.00
23899;BME280;20544;50.018;20.010;2023-06-22T02:44:51;98986.04;;;19.88;100.00
23899;BME280;20544;50.018;20.010;2023-06-22T02:48:08;98989.08;;;19.92;100.00
23899;BME280;20544;50.018;20.010;2023-06-22T02:51:25;98983.25;;;19.83;100.00
23899;BME280;20544;50.018;20.010;2023-06-22T02:54:43;98983.67;;;19.80;100.00
23899;BME280;20544;50.018;20.010;2023-06-22T02:57:59;98992.58;;;19.80;100.00
23899;BME280;20544;50.018;20.010;2023-06-22T03:01:18;98999.37;;;19.71;100.00
23899;BME280;20544;50.018;20.010;2023-06-22T03:04:38;99003.94;;;19.70;100.00
23899;BME280;20544;50.018;20.010;2023-06-22T03:07:56;98996.22;;;19.62;100.00
23899;BME280;20544;50.018;20.010;2023-06-22T03:11:14;98999.40;;;19.59;100.00
23899;BME280;20544;50.018;20.010;2023-06-22T03:14:31;98993.08;;;19.65;100.00
23899;BME280;20544;50.018;20.010;2023-06-22T03:17:50;98995.88;;;19.70;100.00
23899;BME280;20544;50.018;20.010;2023-06-22T03:21:06;98993.88;;;19.66;100.00
23899;BME280;20544;50.018;20.010;2023-06-22T03:24:25;99003.00;;;19.65;100.00
23899;BME280;20544;50.018;20.010;2023-06-22T03:27:44;99009.22;;;19.65;100.00
23899;BME280;20544;50.018;20.010;2023-06-22T03:31:02;99015.89;;;19.63;100.00
23899;BME280;20544;50.018;20.010;2023-06-22T03:34:20;99021.83;;;19.65;100.00
23899;BME280;20544;50.018;20.010;2023-06-22T03:37:38;99021.59;;;19.66;100.00
23899;BME280;20544;50.018;20.010;2023-06-22T03:40:54;99019.98;;;19.65;100.00
23899;BME280;20544;50.018;20.010;2023-06-22T03:44:11;99027.70;;;19.62;100.00
23899;BME280;20544;50.018;20.010;2023-06-22T03:47:28;99022.67;;;19.65;100.00
23899;BME280;20544;50.018;20.010;2023-06-22T03:50:46;99018.80;;;19.61;100.00
23899;BME280;20544;50.018;20.010;2023-06-22T03:54:03;99013.30;;;19.56;100.00
23899;BME280;20544;50.018;20.010;2023-06-22T03:57:19;99027.80;;;19.55;100.00
23899;BME280;20544;50.018;20.010;2023-06-22T04:00:36;99035.06;;;19.54;100.00
23899;BME280;20544;50.018;20.010;2023-06-22T04:03:52;99056.09;;;19.58;100.00
23899;BME280;20544;50.018;20.010;2023-06-22T04:07:09;99044.19;;;19.65;100.00
23899;BME280;20544;50.018;20.010;2023-06-22T04:10:27;99047.80;;;19.71;100.00
23899;BME280;20544;50.018;20.010;2023-06-22T04:13:43;99045.70;;;19.73;100.00
23899;BME280;20544;50.018;20.010;2023-06-22T04:17:01;99037.73;;;19.78;100.00
23899;BME280;20544;50.018;20.010;2023-06-22T04:20:19;99045.35;;;19.81;100.00
23899;BME280;20544;50.018;20.010;2023-06-22T04:23:37;99046.05;;;19.88;100.00
23899;BME280;20544;50.018;20.010;2023-06-22T04:26:55;99045.80;;;20.02;100.00
23899;BME280;20544;50.018;20.010;2023-06-22T04:30:13;99050.67;;;20.17;100.00
23899;BME280;20544;50.018;20.010;2023-06-22T04:33:29;99049.48;;;20.25;100.00
23899;BME280;20544;50.018;20.010;2023-06-22T04:36:48;99054.34;;;20.40;100.00
23899;BME280;20544;50.018;20.010;2023-06-22T04:40:05;99063.45;;;20.50;100.00
23899;BME280;20544;50.018;20.010;2023-06-22T04:43:23;99055.09;;;20.64;100.00
23899;BME280;20544;50.018;20.010;2023-06-22T04:46:42;99068.30;;;20.77;100.00
23899;BME280;20544;50.018;20.010;2023-06-22T04:50:01;99084.39;;;20.89;100.00
23899;BME280;20544;50.018;20.010;2023-06-22T04:53:18;99076.48;;;20.99;100.00
23899;BME280;20544;50.018;20.010;2023-06-22T04:56:37;99088.34;;;21.15;100.00
23899;BME280;20544;50.018;20.010;2023-06-22T04:59:56;99080.42;;;21.26;100.00
23899;BME280;20544;50.018;20.010;2023-06-22T05:03:17;99081.16;;;21.38;100.00
23899;BME280;20544;50.018;20.010;2023-06-22T05:06:35;99083.85;;;21.55;100.00
23899;BME280;20544;50.018;20.010;2023-06-22T05:09:52;99073.23;;;21.65;100.00
23899;BME280;20544;50.018;20.010;2023-06-22T05:13:10;99084.42;;;21.74;100.00
23899;BME280;20544;50.018;20.010;2023-06-22T05:16:27;99098.63;;;21.87;100.00
23899;BME280;20544;50.018;20.010;2023-06-22T05:19:44;99091.50;;;21.97;100.00
23899;BME280;20544;50.018;20.010;2023-06-22T05:23:02;99094.09;;;22.09;100.00
23899;BME280;20544;50.018;20.010;2023-06-22T05:26:19;99103.39;;;22.19;100.00
23899;BME280;20544;50.018;20.010;2023-06-22T05:29:36;99099.48;;;22.32;100.00
23899;BME280;20544;50.018;20.010;2023-06-22T05:32:54;99101.27;;;22.43;100.00
23899;BME280;20544;50.018;20.010;2023-06-22T05:36:11;99099.77;;;22.52;100.00
23899;BME280;20544;50.018;20.010;2023-06-22T05:39:43;99100.63;;;22.58;100.00
23899;BME280;20544;50.018;20.010;2023-06-22T05:42:59;99105.33;;;22.68;100.00
23899;BME280;20544;50.018;20.010;2023-06-22T05:46:16;99109.23;;;22.77;100.00
23899;BME280;20544;50.018;20.010;2023-06-22T05:49:33;99121.52;;;22.90;100.00
23899;BME280;20544;50.018;20.010;2023-06-22T05:52:49;99112.34;;;22.91;100.00
23899;BME280;20544;50.018;20.010;2023-06-22T05:56:06;99111.05;;;22.99;100.00
23899;BME280;20544;50.018;20.010;2023-06-22T05:59:23;99117.89;;;23.06;100.00
23899;BME280;20544;50.018;20.010;2023-06-22T06:02:39;99124.25;;;23.17;100.00
23899;BME280;20544;50.018;20.010;2023-06-22T06:05:56;99128.98;;;23.32;100.00
23899;BME280;20544;50.018;20.010;2023-06-22T06:09:12;99133.13;;;23.45;100.00
23899;BME280;20544;50.018;20.010;2023-06-22T06:12:29;99137.47;;;23.46;100.00
23899;BME280;20544;50.018;20.010;2023-06-22T06:15:46;99140.55;;;23.60;100.00
23899;BME280;20544;50.018;20.010;2023-06-22T06:19:04;99140.34;;;23.67;100.00
23899;BME280;20544;50.018;20.010;2023-06-22T06:22:21;99151.81;;;23.79;100.00
23899;BME280;20544;50.018;20.010;2023-06-22T06:25:37;99140.47;;;23.87;100.00
23899;BME280;20544;50.018;20.010;2023-06-22T06:28:54;99145.47;;;24.01;100.00
23899;BME280;20544;50.018;20.010;2023-06-22T06:32:11;99154.18;;;24.08;100.00
23899;BME280;20544;50.018;20.010;2023-06-22T06:35:28;99150.72;;;24.18;100.00
23899;BME280;20544;50.018;20.010;2023-06-22T06:38:48;99152.69;;;24.33;100.00
23899;BME280;20544;50.018;20.010;2023-06-22T06:42:06;99152.45;;;24.45;100.00
23899;BME280;20544;50.018;20.010;2023-06-22T06:45:24;99157.36;;;24.48;100.00
23899;BME280;20544;50.018;20.010;2023-06-22T06:48:43;99157.38;;;24.53;100.00
23899;BME280;20544;50.018;20.010;2023-06-22T06:52:01;99149.53;;;24.57;100.00
23899;BME280;20544;50.018;20.010;2023-06-22T06:55:18;99148.46;;;24.58;100.00
23899;BME280;20544;50.018;20.010;2023-06-22T06:58:34;99151.80;;;24.75;100.00
23899;BME280;20544;50.018;20.010;2023-06-22T07:01:51;99154.23;;;24.77;100.00
23899;BME280;20544;50.018;20.010;2023-06-22T07:05:08;99155.88;;;24.83;100.00
23899;BME280;20544;50.018;20.010;2023-06-22T07:08:27;99164.31;;;24.92;100.00
23899;BME280;20544;50.018;20.010;2023-06-22T07:11:51;99156.47;;;25.06;100.00
23899;BME280;20544;50.018;20.010;2023-06-22T07:15:11;99156.47;;;25.16;100.00
23899;BME280;20544;50.018;20.010;2023-06-22T07:18:29;99149.97;;;25.22;100.00
23899;BME280;20544;50.018;20.010;2023-06-22T07:21:47;99156.78;;;25.30;100.00
23899;BME280;20544;50.018;20.010;2023-06-22T07:25:04;99152.99;;;25.36;100.00
23899;BME280;20544;50.018;20.010;2023-06-22T07:28:24;99149.22;;;25.47;100.00
23899;BME280;20544;50.018;20.010;2023-06-22T07:31:43;99145.14;;;25.55;100.00
23899;BME280;20544;50.018;20.010;2023-06-22T07:35:01;99142.97;;;25.62;100.00
23899;BME280;20544;50.018;20.010;2023-06-22T07:38:20;99144.58;;;25.79;100.00
23899;BME280;20544;50.018;20.010;2023-06-22T07:41:38;99144.55;;;25.89;100.00
23899;BME280;20544;50.018;20.010;2023-06-22T07:44:55;99138.59;;;25.87;100.00
23899;BME280;20544;50.018;20.010;2023-06-22T07:48:12;99137.75;;;26.02;100.00
23899;BME280;20544;50.018;20.010;2023-06-22T07:51:29;99133.92;;;26.19;100.00
23899;BME280;20544;50.018;20.010;2023-06-22T07:54:46;99137.66;;;26.38;100.00
23899;BME280;20544;50.018;20.010;2023-06-22T07:58:05;99144.88;;;26.63;100.00
23899;BME280;20544;50.018;20.010;2023-06-22T08:01:21;99145.33;;;26.86;100.00
23899;BME280;20544;50.018;20.010;2023-06-22T08:04:40;99155.94;;;27.27;100.00
23899;BME280;20544;50.018;20.010;2023-06-22T08:07:59;99155.64;;;27.29;100.00
23899;BME280;20544;50.018;20.010;2023-06-22T08:11:15;99157.84;;;27.67;100.00
23899;BME280;20544;50.018;20.010;2023-06-22T08:14:35;99169.99;;;28.09;100.00
23899;BME280;20544;50.018;20.010;2023-06-22T08:17:52;99171.48;;;28.45;100.00
23899;BME280;20544;50.018;20.010;2023-06-22T08:21:10;99176.81;;;28.79;100.00
23899;BME280;20544;50.018;20.010;2023-06-22T08:24:26;99167.89;;;29.12;100.00
23899;BME280;20544;50.018;20.010;2023-06-22T08:27:46;99173.80;;;29.38;100.00
23899;BME280;20544;50.018;20.010;2023-06-22T08:31:04;99181.08;;;29.76;100.00
23899;BME280;20544;50.018;20.010;2023-06-22T08:34:21;99179.56;;;30.16;100.00
23899;BME280;20544;50.018;20.010;2023-06-22T08:37:38;99193.44;;;30.48;100.00
23899;BME280;20544;50.018;20.010;2023-06-22T08:40:57;99193.66;;;30.65;100.00
23899;BME280;20544;50.018;20.010;2023-06-22T08:44:16;99190.77;;;30.98;100.00
23899;BME280;20544;50.018;20.010;2023-06-22T08:47:33;99196.93;;;31.18;100.00
23899;BME280;20544;50.018;20.010;2023-06-22T08:50:51;99194.39;;;31.44;100.00
23899;BME280;20544;50.018;20.010;2023-06-22T08:54:08;99201.19;;;31.70;100.00
23899;BME280;20544;50.018;20.010;2023-06-22T08:57:25;99195.72;;;31.10;100.00
23899;BME280;20544;50.018;20.010;2023-06-22T09:00:42;99200.34;;;31.24;100.00
23899;BME280;20544;50.018;20.010;2023-06-22T09:04:00;99209.77;;;31.54;100.00
23899;BME280;20544;50.018;20.010;2023-06-22T09:07:20;99199.89;;;31.67;100.00
23899;BME280;20544;50.018;20.010;2023-06-22T09:10:40;99202.45;;;31.95;100.00
23899;BME280;20544;50.018;20.010;2023-06-22T09:13:57;99196.42;;;31.61;100.00
23899;BME280;20544;50.018;20.010;2023-06-22T09:17:19;99189.34;;;31.01;100.00
23899;BME280;20544;50.018;20.010;2023-06-22T09:20:40;99192.18;;;31.10;100.00
23899;BME280;20544;50.018;20.010;2023-06-22T09:23:58;99197.10;;;30.71;100.00
23899;BME280;20544;50.018;20.010;2023-06-22T09:27:15;99203.22;;;31.05;100.00
23899;BME280;20544;50.018;20.010;2023-06-22T09:30:34;99185.85;;;31.23;100.00
23899;BME280;20544;50.018;20.010;2023-06-22T09:33:55;99190.02;;;31.21;100.00
23899;BME280;20544;50.018;20.010;2023-06-22T09:37:12;99197.35;;;30.97;100.00
23899;BME280;20544;50.018;20.010;2023-06-22T09:40:29;99191.00;;;30.74;100.00
23899;BME280;20544;50.018;20.010;2023-06-22T09:43:48;99192.11;;;30.87;100.00
23899;BME280;20544;50.018;20.010;2023-06-22T09:47:06;99190.55;;;31.09;100.00
23899;BME280;20544;50.018;20.010;2023-06-22T09:50:23;99191.33;;;31.23;100.00
23899;BME280;20544;50.018;20.010;2023-06-22T09:53:41;99186.43;;;31.34;100.00
23899;BME280;20544;50.018;20.010;2023-06-22T09:56:57;99183.75;;;31.43;100.00
23899;BME280;20544;50.018;20.010;2023-06-22T10:00:17;99187.66;;;31.51;100.00
23899;BME280;20544;50.018;20.010;2023-06-22T10:03:36;99184.95;;;31.14;100.00
23899;BME280;20544;50.018;20.010;2023-06-22T10:06:53;99182.98;;;30.92;100.00
23899;BME280;20544;50.018;20.010;2023-06-22T10:10:14;99184.33;;;30.66;100.00
23899;BME280;20544;50.018;20.010;2023-06-22T10:13:30;99171.34;;;30.44;100.00
23899;BME280;20544;50.018;20.010;2023-06-22T10:16:47;99174.72;;;30.13;100.00
23899;BME280;20544;50.018;20.010;2023-06-22T10:20:10;99170.48;;;29.88;100.00
23899;BME280;20544;50.018;20.010;2023-06-22T10:23:30;99163.47;;;30.01;100.00
23899;BME280;20544;50.018;20.010;2023-06-22T10:26:47;99162.36;;;30.02;100.00
23899;BME280;20544;50.018;20.010;2023-06-22T10:30:04;99165.48;;;30.09;100.00
23899;BME280;20544;50.018;20.010;2023-06-22T10:33:22;99169.94;;;30.19;100.00
23899;BME280;20544;50.018;20.010;2023-06-22T10:36:38;99157.89;;;30.06;100.00
23899;BME280;20544;50.018;20.010;2023-06-22T10:39:56;99164.80;;;29.84;100.00
23899;BME280;20544;50.018;20.010;2023-06-22T10:43:13;99148.27;;;29.95;100.00
23899;BME280;20544;50.018;20.010;2023-06-22T10:46:29;99154.49;;;29.81;100.00
23899;BME280;20544;50.018;20.010;2023-06-22T10:49:46;99151.70;;;30.00;100.00
23899;BME280;20544;50.018;20.010;2023-06-22T10:53:06;99150.18;;;30.08;100.00
23899;BME280;20544;50.018;20.010;2023-06-22T10:56:23;99136.92;;;30.15;100.00
23899;BME280;20544;50.018;20.010;2023-06-22T10:59:47;99130.75;;;30.24;100.00
23899;BME280;20544;50.018;20.010;2023-06-22T11:07:29;99131.36;;;30.07;100.00
23899;BME280;20544;50.018;20.010;2023-06-22T11:10:46;99125.47;;;29.99;100.00
23899;BME280;20544;50.018;20.010;2023-06-22T11:14:03;99126.30;;;30.00;100.00
23899;BME280;20544;50.018;20.010;2023-06-22T11:17:22;99124.53;;;29.76;100.00
23899;BME280;20544;50.018;20.010;2023-06-22T11:20:39;99111.70;;;29.91;100.00
23899;BME280;20544;50.018;20.010;2023-06-22T11:23:59;99114.05;;;29.97;100.00
23899;BME280;20544;50.018;20.010;2023-06-22T11:27:23;99120.63;;;29.96;100.00
23899;BME280;20544;50.018;20.010;2023-06-22T11:30:45;99102.39;;;29.92;100.00
23899;BME280;20544;50.018;20.010;2023-06-22T11:34:21;99104.44;;;30.00;100.00
23899;BME280;20544;50.018;20.010;2023-06-22T11:37:50;99104.68;;;29.84;100.00
23899;BME280;20544;50.018;20.010;2023-06-22T11:45:45;99090.88;;;29.48;100.00
23899;BME280;20544;50.018;20.010;2023-06-22T11:49:41;99101.00;;;29.47;100.00
23899;BME280;20544;50.018;20.010;2023-06-22T11:53:10;99088.94;;;29.48;100.00
23899;BME280;20544;50.018;20.010;2023-06-22T11:56:43;99097.63;;;29.36;100.00
23899;BME280;20544;50.018;20.010;2023-06-22T12:00:02;99081.67;;;29.25;100.00
23899;BME280;20544;50.018;20.010;2023-06-22T12:03:24;99075.81;;;29.17;100.00
23899;BME280;20544;50.018;20.010;2023-06-22T12:06:41;99074.19;;;29.16;100.00
23899;BME280;20544;50.018;20.010;2023-06-22T12:10:01;99076.92;;;29.16;100.00
23899;BME280;20544;50.018;20.010;2023-06-22T12:13:26;99075.87;;;29.12;100.00
23899;BME280;20544;50.018;20.010;2023-06-22T12:16:52;99071.55;;;29.11;100.00
23899;BME280;20544;50.018;20.010;2023-06-22T12:20:20;99073.75;;;29.09;100.00
23899;BME280;20544;50.018;20.010;2023-06-22T12:24:52;99079.30;;;29.04;100.00
23899;BME280;20544;50.018;20.010;2023-06-22T12:28:12;99076.88;;;29.02;100.00
23899;BME280;20544;50.018;20.010;2023-06-22T12:31:28;99076.34;;;29.00;100.00
23899;BME280;20544;50.018;20.010;2023-06-22T12:34:46;99066.31;;;28.96;100.00
23899;BME280;20544;50.018;20.010;2023-06-22T12:38:02;99063.89;;;28.94;100.00
23899;BME280;20544;50.018;20.010;2023-06-22T12:41:20;99054.96;;;28.88;100.00
23899;BME280;20544;50.018;20.010;2023-06-22T12:44:38;99054.47;;;28.86;100.00
23899;BME280;20544;50.018;20.010;2023-06-22T12:47:55;99059.70;;;28.83;100.00
23899;BME280;20544;50.018;20.010;2023-06-22T12:51:12;99048.66;;;28.74;100.00
23899;BME280;20544;50.018;20.010;2023-06-22T12:54:28;99040.30;;;28.65;100.00
23899;BME280;20544;50.018;20.010;2023-06-22T12:57:46;99035.64;;;28.66;100.00
23899;BME280;20544;50.018;20.010;2023-06-22T13:01:02;99031.28;;;28.65;100.00
23899;BME280;20544;50.018;20.010;2023-06-22T13:04:19;99036.25;;;28.63;100.00
23899;BME280;20544;50.018;20.010;2023-06-22T13:07:36;99032.91;;;28.66;100.00
23899;BME280;20544;50.018;20.010;2023-06-22T13:10:52;99029.39;;;28.65;100.00
23899;BME280;20544;50.018;20.010;2023-06-22T13:14:08;99012.27;;;28.60;100.00
23899;BME280;20544;50.018;20.010;2023-06-22T13:17:25;99014.50;;;28.57;100.00
23899;BME280;20544;50.018;20.010;2023-06-22T13:20:41;99015.91;;;28.55;100.00
23899;BME280;20544;50.018;20.010;2023-06-22T13:23:58;99021.94;;;28.52;100.00
23899;BME280;20544;50.018;20.010;2023-06-22T13:27:15;99013.23;;;28.50;100.00
23899;BME280;20544;50.018;20.010;2023-06-22T13:30:32;99017.36;;;28.47;100.00
23899;BME280;20544;50.018;20.010;2023-06-22T13:33:48;99008.91;;;28.49;100.00
23899;BME280;20544;50.018;20.010;2023-06-22T13:37:05;99012.96;;;28.51;100.00
23899;BME280;20544;50.018;20.010;2023-06-22T13:40:24;99019.52;;;28.50;100.00
23899;BME280;20544;50.018;20.010;2023-06-22T13:43:41;99006.98;;;28.49;100.00
23899;BME280;20544;50.018;20.010;2023-06-22T13:46:57;99006.45;;;28.47;100.00
23899;BME280;20544;50.018;20.010;2023-06-22T13:50:14;99006.23;;;28.44;100.00
23899;BME280;20544;50.018;20.010;2023-06-22T13:53:31;98999.19;;;28.43;100.00
23899;BME280;20544;50.018;20.010;2023-06-22T13:56:50;99004.41;;;28.39;100.00
23899;BME280;20544;50.018;20.010;2023-06-22T14:00:08;99007.41;;;28.37;100.00
23899;BME280;20544;50.018;20.010;2023-06-22T14:03:26;99008.02;;;28.34;100.00
23899;BME280;20544;50.018;20.010;2023-06-22T14:06:43;99001.53;;;28.30;100.00
23899;BME280;20544;50.018;20.010;2023-06-22T14:10:02;98997.76;;;28.26;100.00
23899;BME280;20544;50.018;20.010;2023-06-22T14:13:19;98995.86;;;28.27;100.00
23899;BME280;20544;50.018;20.010;2023-06-22T14:16:36;99004.04;;;28.27;100.00
23899;BME280;20544;50.018;20.010;2023-06-22T14:19:53;98997.27;;;28.24;100.00
23899;BME280;20544;50.018;20.010;2023-06-22T14:23:10;98989.16;;;28.19;100.00
23899;BME280;20544;50.018;20.010;2023-06-22T14:26:27;98988.63;;;28.17;100.00
23899;BME280;20544;50.018;20.010;2023-06-22T14:29:44;98996.58;;;28.13;100.00
23899;BME280;20544;50.018;20.010;2023-06-22T14:33:04;98993.86;;;28.13;100.00
23899;BME280;20544;50.018;20.010;2023-06-22T14:36:28;98996.05;;;28.11;100.00
23899;BME280;20544;50.018;20.010;2023-06-22T14:39:57;98984.66;;;28.09;100.00
23899;BME280;20544;50.018;20.010;2023-06-22T14:43:13;98986.55;;;28.08;100.00
23899;BME280;20544;50.018;20.010;2023-06-22T14:46:29;98985.75;;;28.08;100.00
23899;BME280;20544;50.018;20.010;2023-06-22T14:49:47;98984.13;;;28.07;100.00
23899;BME280;20544;50.018;20.010;2023-06-22T14:53:05;98980.60;;;28.06;100.00
23899;BME280;20544;50.018;20.010;2023-06-22T14:56:31;98981.40;;;28.07;100.00
23899;BME280;20544;50.018;20.010;2023-06-22T14:59:47;98975.15;;;28.06;100.00
23899;BME280;20544;50.018;20.010;2023-06-22T15:03:06;98972.70;;;28.05;100.00
23899;BME280;20544;50.018;20.010;2023-06-22T15:06:25;98974.06;;;28.02;100.00
23899;BME280;20544;50.018;20.010;2023-06-22T15:09:42;98968.91;;;28.01;100.00
23899;BME280;20544;50.018;20.010;2023-06-22T15:13:01;98969.52;;;27.98;100.00
23899;BME280;20544;50.018;20.010;2023-06-22T15:16:18;98968.45;;;27.93;100.00
23899;BME280;20544;50.018;20.010;2023-06-22T15:22:59;98958.46;;;27.89;100.00
23899;BME280;20544;50.018;20.010;2023-06-22T15:26:20;98966.63;;;27.89;100.00
23899;BME280;20544;50.018;20.010;2023-06-22T15:29:37;98963.38;;;27.87;100.00
23899;BME280;20544;50.018;20.010;2023-06-22T15:32:56;98963.38;;;27.87;100.00
23899;BME280;20544;50.018;20.010;2023-06-22T15:36:13;98964.25;;;27.82;100.00
23899;BME280;20544;50.018;20.010;2023-06-22T15:39:32;98968.59;;;27.83;100.00
23899;BME280;20544;50.018;20.010;2023-06-22T15:42:50;98971.63;;;27.82;100.00
23899;BME280;20544;50.018;20.010;2023-06-22T15:46:08;98964.02;;;27.79;100.00
23899;BME280;20544;50.018;20.010;2023-06-22T15:49:27;98973.59;;;27.76;100.00
23899;BME280;20544;50.018;20.010;2023-06-22T15:53:15;98968.73;;;27.73;100.00
23899;BME280;20544;50.018;20.010;2023-06-22T15:56:30;98968.73;;;27.73;100.00
23899;BME280;20544;50.018;20.010;2023-06-22T15:59:47;98967.91;;;27.72;100.00
23899;BME280;20544;50.018;20.010;2023-06-22T16:03:07;98963.55;;;27.71;100.00
23899;BME280;20544;50.018;20.010;2023-06-22T16:06:25;98967.41;;;27.70;100.00
23899;BME280;20544;50.018;20.010;2023-06-22T16:09:43;98964.16;;;27.68;100.00
23899;BME280;20544;50.018;20.010;2023-06-22T16:13:00;98972.33;;;27.68;100.00
23899;BME280;20544;50.018;20.010;2023-06-22T16:16:27;98963.63;;;27.66;100.00
23899;BME280;20544;50.018;20.010;2023-06-22T16:19:44;98960.40;;;27.64;100.00
23899;BME280;20544;50.018;20.010;2023-06-22T16:23:18;98956.34;;;27.62;100.00
23899;BME280;20544;50.018;20.010;2023-06-22T16:26:51;98950.07;;;27.61;100.00
23899;BME280;20544;50.018;20.010;2023-06-22T16:30:31;98953.39;;;27.58;100.00
23899;BME280;20544;50.018;20.010;2023-06-22T16:33:54;98952.56;;;27.57;100.00
23899;BME280;20544;50.018;20.010;2023-06-22T16:37:15;98950.94;;;27.56;100.00
23899;BME280;20544;50.018;20.010;2023-06-22T16:40:32;98947.71;;;27.54;100.00
23899;BME280;20544;50.018;20.010;2023-06-22T16:44:01;98947.71;;;27.54;100.00
23899;BME280;20544;50.018;20.010;2023-06-22T16:47:18;98958.08;;;27.52;100.00
23899;BME280;20544;50.018;20.010;2023-06-22T16:50:44;98949.38;;;27.50;100.00
23899;BME280;20544;50.018;20.010;2023-06-22T16:54:21;98955.11;;;27.49;100.00
23899;BME280;20544;50.018;20.010;2023-06-22T17:02:17;98943.48;;;27.43;100.00
23899;BME280;20544;50.018;20.010;2023-06-22T17:05:39;98941.33;;;27.40;100.00
23899;BME280;20544;50.018;20.010;2023-06-22T17:09:11;98942.69;;;27.37;100.00
23899;BME280;20544;50.018;20.010;2023-06-22T17:12:28;98941.36;;;27.35;100.00
23899;BME280;20544;50.018;20.010;2023-06-22T17:15:54;98940.83;;;27.33;100.00
23899;BME280;20544;50.018;20.010;2023-06-22T17:19:14;98935.14;;;27.29;100.00
23899;BME280;20544;50.018;20.010;2023-06-22T17:22:35;98928.91;;;27.28;100.00
23899;BME280;20544;50.018;20.010;2023-06-22T17:25:53;98927.58;;;27.26;100.00